createdAt,value
2023-05-09T00:00:57.866Z,76.79
2023-05-09T00:02:31.197Z,76.65
2023-05-09T00:04:04.965Z,77.06
2023-05-09T00:05:38.881Z,77.74
2023-05-09T00:07:11.894Z,77.97
2023-05-09T00:08:45.223Z,78.45
2023-05-09T00:10:18.506Z,78.90
2023-05-09T00:11:51.729Z,79.72
2023-05-09T00:13:25.152Z,79.75
2023-05-09T00:14:58.628Z,79.98
2023-05-09T00:16:33.378Z,80.23
2023-05-09T00:18:07.082Z,80.20
2023-05-09T00:19:40.567Z,80.74
2023-05-09T00:21:13.809Z,80.49
2023-05-09T00:22:47.337Z,80.90
2023-05-09T00:24:21.218Z,80.74
2023-05-09T00:25:54.480Z,80.62
2023-05-09T00:27:30.878Z,80.98
2023-05-09T00:29:04.561Z,81.00
2023-05-09T00:30:38.187Z,81.47
2023-05-09T00:32:12.074Z,81.67
2023-05-09T00:33:45.281Z,81.79
2023-05-09T00:35:18.829Z,81.98
2023-05-09T00:36:51.996Z,82.40
2023-05-09T00:38:28.753Z,83.02
2023-05-09T00:40:02.145Z,83.12
2023-05-09T00:41:36.710Z,83.35
2023-05-09T00:43:09.923Z,83.10
2023-05-09T00:44:43.481Z,83.39
2023-05-09T00:46:16.803Z,83.26
2023-05-09T00:47:50.578Z,82.77
2023-05-09T00:49:24.016Z,82.92
2023-05-09T00:50:57.446Z,82.71
2023-05-09T00:52:31.750Z,82.25
2023-05-09T00:54:09.037Z,81.93
2023-05-09T00:55:45.165Z,80.90
2023-05-09T00:57:18.625Z,77.66
2023-05-09T00:58:52.475Z,71.08
2023-05-09T01:00:26.201Z,65.21
2023-05-09T01:01:59.574Z,61.53
2023-05-09T01:03:33.187Z,58.77
2023-05-09T01:05:06.737Z,56.41
2023-05-09T01:07:06.640Z,54.53
2023-05-09T01:08:58.379Z,52.69
2023-05-09T01:11:04.537Z,51.69
2023-05-09T01:12:40.691Z,50.35
2023-05-09T01:14:32.258Z,49.52
2023-05-09T01:16:24.284Z,48.98
2023-05-09T01:18:04.294Z,49.25
2023-05-09T01:20:05.247Z,48.93
2023-05-09T01:21:44.543Z,47.38
2023-05-09T01:23:40.536Z,46.64
2023-05-09T01:25:21.230Z,45.96
2023-05-09T01:27:09.393Z,45.13
2023-05-09T01:28:52.516Z,45.11
2023-05-09T01:30:27.909Z,44.15
2023-05-09T01:32:05.084Z,43.79
2023-05-09T01:33:41.513Z,43.41
2023-05-09T01:35:16.663Z,43.44
2023-05-09T01:36:52.190Z,43.50
2023-05-09T01:38:26.695Z,43.17
2023-05-09T01:40:06.785Z,42.75
2023-05-09T01:41:40.646Z,42.97
2023-05-09T01:43:17.389Z,42.04
2023-05-09T01:44:51.474Z,41.66
2023-05-09T01:46:27.793Z,41.41
2023-05-09T01:48:02.176Z,40.66
2023-05-09T01:49:38.107Z,41.00
2023-05-09T01:51:14.252Z,40.90
2023-05-09T01:52:51.313Z,40.10
2023-05-09T01:54:27.994Z,40.40
2023-05-09T01:56:02.365Z,40.24
2023-05-09T01:57:38.435Z,40.02
2023-05-09T01:59:16.490Z,39.82
2023-05-09T02:00:51.634Z,39.45
2023-05-09T02:02:27.495Z,38.69
2023-05-09T02:04:00.836Z,38.33
2023-05-09T02:05:35.345Z,38.56
2023-05-09T02:07:09.457Z,39.70
2023-05-09T02:08:44.002Z,39.60
2023-05-09T02:10:17.738Z,39.46
2023-05-09T02:11:51.265Z,39.10
2023-05-09T02:13:25.185Z,39.27
2023-05-09T02:14:58.752Z,39.23
2023-05-09T02:16:32.266Z,38.98
2023-05-09T02:18:06.085Z,38.79
2023-05-09T02:19:40.518Z,38.66
2023-05-09T02:21:13.991Z,38.87
2023-05-09T02:22:48.369Z,38.85
2023-05-09T02:24:21.486Z,39.34
2023-05-09T02:25:55.558Z,39.13
2023-05-09T02:27:29.206Z,38.92
2023-05-09T02:29:06.673Z,38.95
2023-05-09T02:30:44.873Z,38.98
2023-05-09T02:32:23.741Z,39.02
2023-05-09T02:33:59.098Z,39.01
2023-05-09T02:35:32.919Z,39.01
2023-05-09T02:37:07.136Z,38.97
2023-05-09T02:38:42.621Z,38.92
2023-05-09T02:40:16.114Z,38.72
2023-05-09T02:41:50.200Z,38.69
2023-05-09T02:43:23.821Z,39.15
2023-05-09T02:44:57.262Z,39.61
2023-05-09T02:46:31.387Z,39.69
2023-05-09T02:48:08.669Z,39.68
2023-05-09T02:49:42.341Z,39.18
2023-05-09T02:51:16.314Z,38.70
2023-05-09T02:52:49.709Z,38.15
2023-05-09T02:54:22.899Z,37.74
2023-05-09T02:55:56.373Z,38.17
2023-05-09T02:57:30.401Z,37.94
2023-05-09T02:59:03.719Z,37.84
2023-05-09T03:00:37.294Z,36.58
2023-05-09T03:02:11.816Z,36.56
2023-05-09T03:03:46.847Z,36.43
2023-05-09T03:05:21.258Z,36.70
2023-05-09T03:06:54.623Z,36.69
2023-05-09T03:08:28.718Z,36.55
2023-05-09T03:10:02.084Z,36.55
2023-05-09T03:11:40.279Z,36.67
2023-05-09T03:13:13.647Z,36.60
2023-05-09T03:14:47.762Z,36.64
2023-05-09T03:16:21.130Z,36.49
2023-05-09T03:17:55.663Z,36.02
2023-05-09T03:19:28.807Z,36.23
2023-05-09T03:21:02.247Z,36.40
2023-05-09T03:22:37.334Z,35.82
2023-05-09T03:24:12.979Z,35.42
2023-05-09T03:25:46.336Z,35.88
2023-05-09T03:27:20.605Z,35.77
2023-05-09T03:28:55.400Z,35.71
2023-05-09T03:30:28.773Z,35.51
2023-05-09T03:32:02.781Z,35.23
2023-05-09T03:33:36.034Z,35.19
2023-05-09T03:35:09.989Z,35.40
2023-05-09T03:36:46.233Z,34.96
2023-05-09T03:38:21.171Z,34.92
2023-05-09T03:39:54.481Z,34.66
2023-05-09T03:41:27.857Z,34.27
2023-05-09T03:43:01.341Z,34.41
2023-05-09T03:44:34.509Z,34.14
2023-05-09T03:46:07.710Z,34.14
2023-05-09T03:47:41.509Z,34.09
2023-05-09T03:49:14.908Z,33.72
2023-05-09T03:50:49.262Z,33.72
2023-05-09T03:52:22.712Z,33.94
2023-05-09T03:53:56.288Z,33.51
2023-05-09T03:55:30.136Z,33.67
2023-05-09T03:57:03.898Z,33.52
2023-05-09T03:58:37.744Z,33.29
2023-05-09T04:00:11.727Z,32.85
2023-05-09T04:01:52.266Z,32.91
2023-05-09T04:03:25.708Z,32.75
2023-05-09T04:05:01.569Z,33.25
2023-05-09T04:06:37.602Z,33.00
2023-05-09T04:08:12.968Z,32.35
2023-05-09T04:09:47.632Z,32.36
2023-05-09T04:11:22.054Z,32.49
2023-05-09T04:12:56.248Z,31.88
2023-05-09T04:14:29.742Z,32.01
2023-05-09T04:16:03.432Z,32.17
2023-05-09T04:17:38.794Z,32.44
2023-05-09T04:19:12.242Z,32.30
2023-05-09T04:20:45.614Z,32.12
2023-05-09T04:22:19.436Z,31.97
2023-05-09T04:23:53.038Z,31.65
2023-05-09T04:25:32.700Z,31.58
2023-05-09T04:27:06.419Z,31.52
2023-05-09T04:28:40.805Z,30.79
2023-05-09T04:30:16.185Z,30.64
2023-05-09T04:31:50.725Z,31.02
2023-05-09T04:33:25.106Z,30.97
2023-05-09T04:35:00.636Z,30.33
2023-05-09T04:36:37.790Z,30.36
2023-05-09T04:38:12.102Z,30.19
2023-05-09T04:39:45.388Z,29.71
2023-05-09T04:41:28.217Z,29.25
2023-05-09T04:43:01.402Z,29.49
2023-05-09T04:44:37.215Z,29.70
2023-05-09T04:46:11.431Z,29.92
2023-05-09T04:47:44.968Z,30.24
2023-05-09T04:49:18.290Z,30.24
2023-05-09T04:50:51.755Z,30.47
2023-05-09T04:52:25.157Z,30.06
2023-05-09T04:53:58.367Z,30.42
2023-05-09T04:55:37.560Z,30.45
2023-05-09T04:57:17.817Z,29.94
2023-05-09T04:58:57.535Z,30.15
2023-05-09T05:00:30.967Z,29.79
2023-05-09T05:02:04.397Z,29.72
2023-05-09T05:03:38.499Z,29.44
2023-05-09T05:05:12.796Z,29.35
2023-05-09T05:06:48.908Z,29.20
2023-05-09T05:08:22.097Z,29.43
2023-05-09T05:09:56.240Z,29.86
2023-05-09T05:11:29.675Z,29.63
2023-05-09T05:13:03.112Z,29.39
2023-05-09T05:14:36.701Z,29.25
2023-05-09T05:16:12.487Z,28.87
2023-05-09T05:17:46.300Z,29.35
2023-05-09T05:19:20.313Z,29.13
2023-05-09T05:20:56.051Z,29.30
2023-05-09T05:22:31.631Z,29.05
2023-05-09T05:24:06.228Z,28.89
2023-05-09T05:25:39.969Z,28.83
2023-05-09T05:27:13.257Z,28.95
2023-05-09T05:28:47.384Z,29.02
2023-05-09T05:30:21.412Z,28.66
2023-05-09T05:31:55.282Z,28.56
2023-05-09T05:33:28.739Z,28.99
2023-05-09T05:35:04.075Z,28.74
2023-05-09T05:36:39.237Z,28.83
2023-05-09T05:38:12.317Z,28.68
2023-05-09T05:39:45.743Z,28.99
2023-05-09T05:41:19.454Z,29.01
2023-05-09T05:42:52.667Z,28.73
2023-05-09T05:44:26.195Z,28.74
2023-05-09T05:45:59.745Z,28.53
2023-05-09T05:47:36.736Z,28.94
2023-05-09T05:49:10.580Z,28.56
2023-05-09T05:50:44.109Z,28.44
2023-05-09T05:52:18.744Z,28.44
2023-05-09T05:53:52.246Z,27.80
2023-05-09T05:55:25.756Z,27.93
2023-05-09T05:56:59.057Z,27.74
2023-05-09T05:58:32.230Z,28.24
2023-05-09T06:00:11.043Z,27.97
2023-05-09T06:01:50.394Z,28.14
2023-05-09T06:03:23.715Z,27.99
2023-05-09T06:05:07.445Z,28.29
2023-05-09T06:06:40.846Z,28.44
2023-05-09T06:08:13.975Z,28.51
2023-05-09T06:09:47.374Z,28.76
2023-05-09T06:11:21.672Z,28.76
2023-05-09T06:12:54.982Z,28.68
2023-05-09T06:14:28.890Z,28.57
2023-05-09T06:16:14.913Z,28.71
2023-05-09T06:17:54.864Z,28.23
2023-05-09T06:19:28.351Z,28.74
2023-05-09T06:21:01.739Z,28.86
2023-05-09T06:22:34.831Z,29.01
2023-05-09T06:24:14.466Z,28.75
2023-05-09T06:25:54.439Z,28.53
2023-05-09T06:27:27.620Z,28.74
2023-05-09T06:29:00.878Z,29.07
2023-05-09T06:30:34.155Z,29.19
2023-05-09T06:32:08.512Z,29.28
2023-05-09T06:33:41.605Z,29.11
2023-05-09T06:35:15.215Z,29.39
2023-05-09T06:36:49.005Z,29.31
2023-05-09T06:38:22.677Z,29.31
2023-05-09T06:39:55.909Z,29.20
2023-05-09T06:41:29.285Z,29.37
2023-05-09T06:43:02.489Z,29.29
2023-05-09T06:44:36.296Z,29.06
2023-05-09T06:46:09.420Z,29.22
2023-05-09T06:47:42.862Z,29.43
2023-05-09T06:49:16.416Z,28.80
2023-05-09T06:50:50.471Z,28.99
2023-05-09T06:52:23.608Z,28.98
2023-05-09T06:53:56.741Z,29.33
2023-05-09T06:55:30.104Z,29.70
2023-05-09T06:57:03.407Z,29.31
2023-05-09T06:58:36.813Z,29.66
2023-05-09T07:00:11.210Z,29.16
2023-05-09T07:01:44.338Z,29.40
2023-05-09T07:03:17.718Z,29.49
2023-05-09T07:04:50.919Z,29.56
2023-05-09T07:06:24.530Z,29.61
2023-05-09T07:07:57.732Z,29.74
2023-05-09T07:09:31.291Z,29.70
2023-05-09T07:11:05.073Z,29.51
2023-05-09T07:12:38.584Z,29.69
2023-05-09T07:14:11.876Z,29.50
2023-05-09T07:15:45.622Z,29.45
2023-05-09T07:17:23.417Z,29.64
2023-05-09T07:18:57.263Z,29.68
2023-05-09T07:20:30.387Z,29.64
2023-05-09T07:22:03.808Z,29.70
2023-05-09T07:23:36.922Z,29.64
2023-05-09T07:25:10.606Z,29.43
2023-05-09T07:26:43.624Z,29.34
2023-05-09T07:28:17.513Z,29.40
2023-05-09T07:29:52.637Z,29.42
2023-05-09T07:31:26.222Z,29.53
2023-05-09T07:32:59.417Z,29.06
2023-05-09T07:34:33.019Z,29.37
2023-05-09T07:36:06.351Z,29.46
2023-05-09T07:37:39.627Z,29.48
2023-05-09T07:39:12.720Z,29.65
2023-05-09T07:40:46.093Z,29.65
2023-05-09T07:42:19.260Z,29.61
2023-05-09T07:43:53.206Z,29.59
2023-05-09T07:45:26.356Z,29.25
2023-05-09T07:47:03.015Z,29.00
2023-05-09T07:48:36.691Z,28.90
2023-05-09T07:50:10.122Z,28.63
2023-05-09T07:51:43.290Z,28.36
2023-05-09T07:53:16.529Z,28.19
2023-05-09T07:54:49.746Z,28.99
2023-05-09T07:56:23.264Z,29.02
2023-05-09T07:57:56.995Z,29.09
2023-05-09T07:59:30.433Z,29.00
2023-05-09T08:01:03.529Z,29.14
2023-05-09T08:02:37.187Z,28.99
2023-05-09T08:04:10.850Z,28.77
2023-05-09T08:05:44.234Z,28.59
2023-05-09T08:07:17.522Z,28.59
2023-05-09T08:08:51.187Z,28.77
2023-05-09T08:10:25.342Z,28.75
2023-05-09T08:11:59.184Z,28.95
2023-05-09T08:13:32.485Z,29.52
2023-05-09T08:15:06.772Z,29.05
2023-05-09T08:16:40.151Z,29.01
2023-05-09T08:18:13.497Z,29.22
2023-05-09T08:19:46.496Z,29.13
2023-05-09T08:21:21.561Z,29.07
2023-05-09T08:22:55.656Z,29.19
2023-05-09T08:24:29.113Z,29.04
2023-05-09T08:26:02.444Z,29.01
2023-05-09T08:27:35.635Z,29.02
2023-05-09T08:29:08.894Z,29.27
2023-05-09T08:30:42.620Z,28.97
2023-05-09T08:32:16.103Z,29.09
2023-05-09T08:33:49.674Z,29.04
2023-05-09T08:35:23.254Z,28.80
2023-05-09T08:36:56.728Z,29.13
2023-05-09T08:38:30.070Z,29.12
2023-05-09T08:40:08.014Z,28.99
2023-05-09T08:41:42.707Z,29.05
2023-05-09T08:43:20.737Z,28.74
2023-05-09T08:44:54.179Z,28.74
2023-05-09T08:46:37.138Z,28.84
2023-05-09T08:48:10.628Z,28.60
2023-05-09T08:49:45.955Z,28.83
2023-05-09T08:51:19.809Z,28.71
2023-05-09T08:52:54.046Z,28.78
2023-05-09T08:54:27.940Z,28.54
2023-05-09T08:56:02.161Z,28.77
2023-05-09T08:57:38.343Z,28.57
2023-05-09T08:59:11.634Z,28.62
2023-05-09T09:00:45.656Z,28.30
2023-05-09T09:02:20.223Z,28.08
2023-05-09T09:03:54.755Z,28.00
2023-05-09T09:07:10.261Z,28.02
2023-05-09T09:08:44.850Z,27.84
2023-05-09T09:10:21.532Z,28.24
2023-05-09T09:11:55.784Z,28.60
2023-05-09T09:13:30.129Z,28.04
2023-05-09T09:15:11.351Z,27.96
2023-05-09T09:16:48.033Z,28.33
2023-05-09T09:18:28.582Z,27.69
2023-05-09T09:20:09.333Z,27.88
2023-05-09T09:21:45.588Z,27.94
2023-05-09T09:23:21.432Z,28.20
2023-05-09T09:24:54.982Z,27.71
2023-05-09T09:26:32.038Z,27.90
2023-05-09T09:28:05.963Z,27.92
2023-05-09T09:29:39.163Z,27.97
2023-05-09T09:31:26.439Z,28.25
2023-05-09T09:32:59.720Z,27.81
2023-05-09T09:34:33.417Z,28.04
2023-05-09T09:36:06.897Z,27.77
2023-05-09T09:37:42.157Z,27.72
2023-05-09T09:39:16.064Z,27.90
2023-05-09T09:40:53.965Z,27.79
2023-05-09T09:42:27.532Z,27.96
2023-05-09T09:44:13.915Z,27.59
2023-05-09T09:45:54.250Z,27.93
2023-05-09T09:47:34.394Z,27.84
2023-05-09T09:49:10.904Z,27.77
2023-05-09T09:50:44.327Z,27.93
2023-05-09T09:52:28.600Z,28.05
2023-05-09T09:54:08.342Z,28.08
2023-05-09T09:55:52.640Z,28.17
2023-05-09T09:57:40.294Z,28.26
2023-05-09T09:59:18.420Z,27.90
2023-05-09T10:01:11.599Z,28.01
2023-05-09T10:02:54.859Z,27.95
2023-05-09T10:04:29.237Z,28.07
2023-05-09T10:06:03.231Z,28.14
2023-05-09T10:07:39.449Z,28.25
2023-05-09T10:09:12.779Z,28.06
2023-05-09T10:10:46.122Z,28.26
2023-05-09T10:12:21.316Z,28.33
2023-05-09T10:13:54.858Z,28.34
2023-05-09T10:15:35.589Z,28.28
2023-05-09T10:17:15.760Z,28.31
2023-05-09T10:18:49.268Z,27.96
2023-05-09T10:20:23.937Z,28.51
2023-05-09T10:22:05.025Z,28.14
2023-05-09T10:23:42.836Z,28.08
2023-05-09T10:25:28.049Z,28.33
2023-05-09T10:27:10.681Z,27.97
2023-05-09T10:28:47.315Z,27.68
2023-05-09T10:30:24.620Z,27.88
2023-05-09T10:32:01.432Z,27.78
2023-05-09T10:33:43.969Z,27.78
2023-05-09T10:35:19.031Z,27.60
2023-05-09T10:36:55.793Z,27.63
2023-05-09T10:38:29.384Z,27.80
2023-05-09T10:40:05.651Z,28.11
2023-05-09T10:41:40.153Z,28.11
2023-05-09T10:43:14.213Z,27.97
2023-05-09T10:44:51.697Z,27.99
2023-05-09T10:46:28.940Z,28.13
2023-05-09T10:48:04.889Z,28.05
2023-05-09T10:49:38.792Z,27.74
2023-05-09T10:51:13.710Z,28.09
2023-05-09T10:53:17.367Z,27.67
2023-05-09T10:55:04.519Z,27.81
2023-05-09T10:56:40.986Z,27.75
2023-05-09T10:58:31.036Z,28.17
2023-05-09T11:00:05.700Z,27.84
2023-05-09T11:01:42.672Z,28.00
2023-05-09T11:03:16.534Z,27.85
2023-05-09T11:05:20.804Z,27.91
2023-05-09T11:06:57.112Z,27.92
2023-05-09T11:08:33.702Z,28.21
2023-05-09T11:10:11.493Z,28.29
2023-05-09T11:11:55.555Z,28.26
2023-05-09T11:13:32.284Z,28.29
2023-05-09T11:15:09.462Z,28.02
2023-05-09T11:17:01.088Z,27.92
2023-05-09T11:18:34.851Z,28.10
2023-05-09T11:20:09.966Z,27.99
2023-05-09T11:22:02.744Z,27.93
2023-05-09T11:23:36.151Z,27.77
2023-05-09T11:25:14.226Z,28.25
2023-05-09T11:26:49.087Z,28.17
2023-05-09T11:28:33.354Z,28.11
2023-05-09T11:30:09.615Z,28.12
2023-05-09T11:32:07.154Z,28.03
2023-05-09T11:33:41.734Z,28.09
2023-05-09T11:35:18.999Z,28.16
2023-05-09T11:37:07.236Z,28.00
2023-05-09T11:38:43.682Z,28.13
2023-05-09T11:40:19.603Z,28.02
2023-05-09T11:41:53.388Z,28.30
2023-05-09T11:43:26.822Z,28.08
2023-05-09T11:45:00.543Z,28.29
2023-05-09T11:46:33.717Z,28.18
2023-05-09T11:48:10.261Z,28.29
2023-05-09T11:49:44.856Z,28.18
2023-05-09T11:51:19.669Z,28.23
2023-05-09T11:52:53.860Z,28.10
2023-05-09T11:54:27.088Z,28.08
2023-05-09T11:56:04.744Z,28.11
2023-05-09T11:57:56.694Z,28.22
2023-05-09T11:59:29.908Z,28.34
2023-05-09T12:01:03.326Z,28.34
2023-05-09T12:02:37.784Z,28.17
2023-05-09T12:04:11.920Z,27.97
2023-05-09T12:05:45.402Z,28.13
2023-05-09T12:07:19.181Z,28.25
2023-05-09T12:08:53.827Z,28.18
2023-05-09T12:10:27.711Z,28.17
2023-05-09T12:12:22.026Z,28.59
2023-05-09T12:13:55.969Z,28.09
2023-05-09T12:15:47.754Z,28.21
2023-05-09T12:17:54.949Z,28.16
2023-05-09T12:19:33.098Z,28.59
2023-05-09T12:21:07.695Z,28.39
2023-05-09T12:22:44.153Z,28.49
2023-05-09T12:24:23.927Z,28.50
2023-05-09T12:25:58.286Z,28.49
2023-05-09T12:27:33.606Z,28.44
2023-05-09T12:29:07.471Z,28.28
2023-05-09T12:30:41.153Z,28.35
2023-05-09T12:32:18.725Z,28.39
2023-05-09T12:33:53.128Z,28.46
2023-05-09T12:35:26.952Z,28.23
2023-05-09T12:37:03.944Z,28.20
2023-05-09T12:38:37.667Z,28.27
2023-05-09T12:40:14.006Z,28.39
2023-05-09T12:42:00.507Z,28.47
2023-05-09T12:43:40.008Z,28.46
2023-05-09T12:45:13.949Z,28.43
2023-05-09T12:46:55.816Z,28.44
2023-05-09T12:48:32.175Z,28.52
2023-05-09T12:50:07.570Z,28.70
2023-05-09T12:51:50.569Z,28.20
2023-05-09T12:53:28.407Z,28.19
2023-05-09T12:55:09.110Z,28.41
2023-05-09T12:56:42.623Z,28.38
2023-05-09T12:58:15.889Z,28.42
2023-05-09T12:59:49.917Z,28.38
2023-05-09T13:01:30.118Z,28.59
2023-05-09T13:03:03.403Z,28.65
2023-05-09T13:04:36.929Z,28.54
2023-05-09T13:06:15.350Z,28.62
2023-05-09T13:07:51.338Z,28.73
2023-05-09T13:09:25.935Z,28.40
2023-05-09T13:11:11.865Z,28.71
2023-05-09T13:12:49.812Z,28.76
2023-05-09T13:14:23.663Z,28.69
2023-05-09T13:15:57.817Z,28.43
2023-05-09T13:17:31.641Z,28.66
2023-05-09T13:19:05.846Z,28.56
2023-05-09T13:20:39.325Z,28.41
2023-05-09T13:22:12.717Z,28.50
2023-05-09T13:23:46.236Z,28.52
2023-05-09T13:25:21.147Z,28.80
2023-05-09T13:26:54.697Z,28.59
2023-05-09T13:28:28.183Z,28.81
2023-05-09T13:30:01.555Z,28.94
2023-05-09T13:31:36.534Z,28.72
2023-05-09T13:33:24.511Z,28.76
2023-05-09T13:34:59.793Z,28.82
2023-05-09T13:36:32.923Z,28.85
2023-05-09T13:38:07.329Z,28.65
2023-05-09T13:39:41.466Z,28.67
2023-05-09T13:41:20.506Z,28.63
2023-05-09T13:42:54.036Z,28.84
2023-05-09T13:44:30.143Z,28.82
2023-05-09T13:46:03.833Z,28.82
2023-05-09T13:47:38.579Z,28.85
2023-05-09T13:49:13.012Z,28.89
2023-05-09T13:50:47.191Z,29.03
2023-05-09T13:52:20.550Z,28.94
2023-05-09T13:53:53.685Z,28.91
2023-05-09T13:55:27.998Z,29.12
2023-05-09T13:57:03.928Z,28.75
2023-05-09T13:58:37.258Z,28.92
2023-05-09T14:00:12.729Z,28.95
2023-05-09T14:01:47.745Z,28.96
2023-05-09T14:03:21.269Z,28.98
2023-05-09T14:04:54.926Z,29.04
2023-05-09T14:06:29.372Z,28.99
2023-05-09T14:08:02.438Z,28.92
2023-05-09T14:09:40.392Z,29.16
2023-05-09T14:11:13.458Z,29.37
2023-05-09T14:12:47.659Z,29.08
2023-05-09T14:14:22.392Z,29.42
2023-05-09T14:15:56.947Z,29.32
2023-05-09T14:17:30.084Z,29.37
2023-05-09T14:19:02.999Z,29.50
2023-05-09T14:20:37.770Z,29.39
2023-05-09T14:22:10.942Z,29.51
2023-05-09T14:23:44.059Z,29.58
2023-05-09T14:25:19.711Z,29.61
2023-05-09T14:26:52.815Z,29.58
2023-05-09T14:28:26.259Z,29.72
2023-05-09T14:29:59.732Z,29.73
2023-05-09T14:31:33.681Z,29.43
2023-05-09T14:33:07.492Z,29.68
2023-05-09T14:34:40.793Z,29.58
2023-05-09T14:36:14.020Z,29.79
2023-05-09T14:37:47.521Z,29.86
2023-05-09T14:39:21.406Z,29.97
2023-05-09T14:40:54.613Z,30.00
2023-05-09T14:42:28.245Z,30.03
2023-05-09T14:44:01.636Z,30.05
2023-05-09T14:45:35.451Z,30.11
2023-05-09T14:47:10.682Z,30.17
2023-05-09T14:48:43.988Z,30.17
2023-05-09T14:50:17.434Z,30.01
2023-05-09T14:51:50.978Z,30.10
2023-05-09T14:53:25.013Z,30.12
2023-05-09T14:55:00.293Z,30.17
2023-05-09T14:56:33.780Z,30.29
2023-05-09T14:58:08.089Z,30.21
2023-05-09T14:59:41.303Z,30.37
2023-05-09T15:01:14.904Z,30.43
2023-05-09T15:02:48.269Z,30.24
2023-05-09T15:04:21.823Z,30.44
2023-05-09T15:05:55.057Z,30.42
2023-05-09T15:07:28.573Z,30.43
2023-05-09T15:09:02.148Z,30.42
2023-05-09T15:10:35.471Z,30.35
2023-05-09T15:12:08.905Z,30.50
2023-05-09T15:13:42.132Z,30.34
2023-05-09T15:15:20.129Z,30.51
2023-05-09T15:16:54.312Z,30.52
2023-05-09T15:18:29.084Z,30.60
2023-05-09T15:20:03.217Z,30.58
2023-05-09T15:21:36.340Z,30.54
2023-05-09T15:23:09.550Z,30.69
2023-05-09T15:24:44.608Z,30.71
2023-05-09T15:26:18.061Z,30.91
2023-05-09T15:27:51.227Z,30.63
2023-05-09T15:29:24.626Z,30.73
2023-05-09T15:31:00.256Z,30.75
2023-05-09T15:32:34.840Z,30.71
2023-05-09T15:34:08.083Z,30.84
2023-05-09T15:35:44.649Z,30.82
2023-05-09T15:37:18.432Z,31.10
2023-05-09T15:38:52.319Z,30.98
2023-05-09T15:40:35.004Z,31.03
2023-05-09T15:42:09.278Z,30.93
2023-05-09T15:43:42.828Z,30.99
2023-05-09T15:45:16.185Z,30.98
2023-05-09T15:46:49.672Z,31.04
2023-05-09T15:48:23.373Z,30.94
2023-05-09T15:49:56.849Z,31.02
2023-05-09T15:51:30.458Z,31.25
2023-05-09T15:53:03.586Z,31.16
2023-05-09T15:54:38.027Z,31.04
2023-05-09T15:56:11.526Z,30.94
2023-05-09T15:57:45.534Z,30.90
2023-05-09T15:59:19.875Z,31.16
2023-05-09T16:00:53.328Z,31.26
2023-05-09T16:02:26.794Z,31.05
2023-05-09T16:04:00.444Z,31.20
2023-05-09T16:05:34.556Z,31.35
2023-05-09T16:07:09.138Z,31.31
2023-05-09T16:08:42.314Z,31.32
2023-05-09T16:10:15.690Z,31.39
2023-05-09T16:11:49.072Z,31.19
2023-05-09T16:13:22.881Z,31.46
2023-05-09T16:14:56.215Z,31.37
2023-05-09T16:16:29.692Z,31.41
2023-05-09T16:18:03.257Z,31.40
2023-05-09T16:19:36.778Z,31.61
2023-05-09T16:21:09.927Z,31.63
2023-05-09T16:22:43.148Z,31.82
2023-05-09T16:24:16.385Z,31.98
2023-05-09T16:25:50.208Z,32.23
2023-05-09T16:27:23.819Z,32.15
2023-05-09T16:28:57.464Z,32.07
2023-05-09T16:30:30.760Z,32.03
2023-05-09T16:32:04.190Z,31.89
2023-05-09T16:33:37.404Z,32.16
2023-05-09T16:35:11.261Z,32.35
2023-05-09T16:36:46.761Z,32.31
2023-05-09T16:38:20.102Z,32.31
2023-05-09T16:39:53.542Z,32.32
2023-05-09T16:41:27.361Z,32.31
2023-05-09T16:43:00.598Z,32.56
2023-05-09T16:44:33.757Z,32.66
2023-05-09T16:46:07.804Z,32.42
2023-05-09T16:47:41.344Z,32.66
2023-05-09T16:49:18.093Z,32.52
2023-05-09T16:50:53.908Z,32.81
2023-05-09T16:52:27.526Z,32.83
2023-05-09T16:54:00.935Z,32.99
2023-05-09T16:55:35.634Z,33.13
2023-05-09T16:57:08.927Z,33.37
2023-05-09T16:58:43.623Z,33.40
2023-05-09T17:00:18.390Z,33.32
2023-05-09T17:01:52.814Z,33.49
2023-05-09T17:03:26.140Z,33.28
2023-05-09T17:05:00.164Z,33.39
2023-05-09T17:06:34.676Z,33.65
2023-05-09T17:08:08.169Z,33.62
2023-05-09T17:09:41.778Z,33.94
2023-05-09T17:11:16.768Z,34.35
2023-05-09T17:12:50.057Z,34.75
2023-05-09T17:14:23.420Z,34.83
2023-05-09T17:15:57.388Z,35.02
2023-05-09T17:17:30.939Z,35.35
2023-05-09T17:19:04.128Z,35.21
2023-05-09T17:20:37.569Z,35.20
2023-05-09T17:22:11.568Z,35.28
2023-05-09T17:23:45.039Z,35.36
2023-05-09T17:25:18.545Z,35.46
2023-05-09T17:26:52.567Z,35.60
2023-05-09T17:28:25.971Z,35.88
2023-05-09T17:29:59.781Z,35.57
2023-05-09T17:31:33.070Z,35.91
2023-05-09T17:33:06.396Z,36.29
2023-05-09T17:34:40.898Z,36.15
2023-05-09T17:36:14.462Z,36.43
2023-05-09T17:37:49.325Z,36.49
2023-05-09T17:39:22.832Z,36.84
2023-05-09T17:40:56.210Z,36.52
2023-05-09T17:42:29.929Z,36.77
2023-05-09T17:44:03.381Z,36.83
2023-05-09T17:45:39.658Z,36.82
2023-05-09T17:47:14.814Z,37.03
2023-05-09T17:48:48.761Z,36.97
2023-05-09T17:50:22.537Z,37.07
2023-05-09T17:51:57.270Z,36.99
2023-05-09T17:53:30.998Z,37.35
2023-05-09T17:55:04.652Z,37.17
2023-05-09T17:56:37.867Z,37.18
2023-05-09T17:58:15.286Z,36.96
2023-05-09T17:59:48.784Z,37.32
2023-05-09T18:01:22.937Z,37.10
2023-05-09T18:03:00.860Z,37.32
2023-05-09T18:04:34.960Z,37.28
2023-05-09T18:06:08.528Z,37.34
2023-05-09T18:07:43.307Z,37.41
2023-05-09T18:09:16.628Z,36.82
2023-05-09T18:10:50.111Z,36.89
2023-05-09T18:12:25.344Z,36.88
2023-05-09T18:13:59.471Z,36.85
2023-05-09T18:15:38.238Z,37.09
2023-05-09T18:17:11.820Z,36.70
2023-05-09T18:18:45.355Z,36.94
2023-05-09T18:20:18.905Z,37.24
2023-05-09T18:21:52.557Z,37.57
2023-05-09T18:23:26.832Z,38.02
2023-05-09T18:25:01.073Z,38.21
2023-05-09T18:26:36.680Z,37.96
2023-05-09T18:28:12.870Z,38.00
2023-05-09T18:29:48.161Z,38.19
2023-05-09T18:31:22.982Z,38.42
2023-05-09T18:33:00.645Z,38.35
2023-05-09T18:34:34.188Z,38.45
2023-05-09T18:36:11.433Z,38.27
2023-05-09T18:37:44.842Z,37.94
2023-05-09T18:39:18.569Z,38.01
2023-05-09T18:40:53.568Z,37.93
2023-05-09T18:42:27.418Z,37.96
2023-05-09T18:44:00.853Z,37.85
2023-05-09T18:45:35.055Z,37.99
2023-05-09T18:47:08.850Z,37.87
2023-05-09T18:48:42.720Z,37.84
2023-05-09T18:50:16.397Z,37.92
2023-05-09T18:51:50.660Z,38.09
2023-05-09T18:53:26.525Z,38.15
2023-05-09T18:55:00.120Z,38.18
2023-05-09T18:56:39.766Z,38.07
2023-05-09T18:58:14.900Z,38.07
2023-05-09T18:59:48.851Z,38.18
2023-05-09T19:01:24.622Z,38.39
2023-05-09T19:02:57.964Z,38.16
2023-05-09T19:04:31.532Z,38.28
2023-05-09T19:06:04.980Z,38.47
2023-05-09T19:07:39.037Z,38.39
2023-05-09T19:09:12.897Z,38.62
2023-05-09T19:10:47.601Z,38.53
2023-05-09T19:12:21.200Z,38.54
2023-05-09T19:13:55.232Z,38.78
2023-05-09T19:15:30.313Z,38.86
2023-05-09T19:17:05.748Z,39.10
2023-05-09T19:18:39.197Z,38.87
2023-05-09T19:20:13.507Z,39.37
2023-05-09T19:21:49.044Z,39.14
2023-05-09T19:23:24.418Z,39.33
2023-05-09T19:25:01.151Z,39.48
2023-05-09T19:26:38.193Z,39.40
2023-05-09T19:28:12.600Z,39.52
2023-05-09T19:29:50.103Z,39.31
2023-05-09T19:31:26.163Z,39.30
2023-05-09T19:33:03.697Z,39.39
2023-05-09T19:34:37.068Z,39.40
2023-05-09T19:36:10.426Z,39.54
2023-05-09T19:37:43.622Z,39.41
2023-05-09T19:39:16.699Z,39.40
2023-05-09T19:40:50.283Z,39.50
2023-05-09T19:42:24.234Z,39.52
2023-05-09T19:43:57.725Z,39.54
2023-05-09T19:45:31.792Z,39.38
2023-05-09T19:47:05.634Z,39.23
2023-05-09T19:48:39.328Z,39.28
2023-05-09T19:50:13.332Z,39.33
2023-05-09T19:51:50.116Z,39.31
2023-05-09T19:53:23.568Z,39.31
2023-05-09T19:54:57.019Z,39.40
2023-05-09T19:56:30.358Z,39.43
2023-05-09T19:58:03.891Z,39.42
2023-05-09T19:59:38.064Z,39.45
2023-05-09T20:01:12.886Z,39.13
2023-05-09T20:02:47.554Z,39.10
2023-05-09T20:04:24.470Z,39.19
2023-05-09T20:05:57.716Z,39.25
2023-05-09T20:07:31.291Z,39.15
2023-05-09T20:09:05.124Z,39.18
2023-05-09T20:10:38.582Z,39.33
2023-05-09T20:12:11.909Z,39.20
2023-05-09T20:13:45.390Z,39.40
2023-05-09T20:15:18.631Z,39.33
2023-05-09T20:16:52.174Z,39.40
2023-05-09T20:18:25.539Z,39.36
2023-05-09T20:19:59.063Z,39.43
2023-05-09T20:21:32.642Z,39.52
2023-05-09T20:23:05.954Z,39.46
2023-05-09T20:24:39.284Z,39.48
2023-05-09T20:26:12.775Z,39.29
2023-05-09T20:27:46.259Z,39.40
2023-05-09T20:29:19.366Z,39.40